Fecha, hora, temperatura, viento dirección y velocidad, humedad y presión.

  • 16-01-2019 16:00:00 | 2.60°C | Noroeste |16.00 km/h | 75.00% | 844.80 hPa
  • 16-01-2019 15:00:00 | 0.00°C | 0 |0.00 km/h | 0.00% | 0.00 hPa
  • 16-01-2019 14:00:00 | 2.60°C | Noroeste |10.00 km/h | 82.00% | 845.10 hPa
  • 16-01-2019 13:00:00 | 0.00°C | 0 |0.00 km/h | 0.00% | 0.00 hPa
  • 16-01-2019 12:00:00 | 2.40°C | Noroeste |14.00 km/h | 77.00% | 845.80 hPa
  • 16-01-2019 11:00:00 | 2.90°C | Este |13.00 km/h | 73.00% | 845.50 hPa
  • 16-01-2019 10:00:00 | 1.00°C | Sudeste |2.00 km/h | 74.00% | 845.50 hPa
  • 16-01-2019 09:00:00 | 0.00°C | 0 |0.00 km/h | 0.00% | 0.00 hPa
  • 16-01-2019 08:00:00 | 0.10°C | Sur |6.00 km/h | 70.00% | 845.20 hPa
  • 16-01-2019 07:00:00 | 0.60°C | Sur |5.00 km/h | 63.00% | 845.30 hPa
  • 16-01-2019 06:00:00 | 1.60°C | Sur |4.00 km/h | 58.00% | 845.60 hPa
  • 16-01-2019 05:00:00 | 1.70°C | Sudeste |7.00 km/h | 55.00% | 846.00 hPa
  • 16-01-2019 04:00:00 | 0.00°C | 0 |0.00 km/h | 0.00% | 0.00 hPa
  • 16-01-2019 03:00:00 | 2.70°C | Sudeste |6.00 km/h | 49.00% | 846.50 hPa
  • 16-01-2019 02:00:00 | 3.30°C | Sur |5.00 km/h | 46.00% | 847.00 hPa
  • 16-01-2019 01:00:00 | 3.30°C | Sur |4.00 km/h | 44.00% | 847.40 hPa
  • 16-01-2019 00:00:00 | 2.90°C | Sudeste |5.00 km/h | 42.00% | 847.80 hPa
  • 15-01-2019 23:00:00 | 3.90°C | Sudeste |4.00 km/h | 40.00% | 848.10 hPa
  • 15-01-2019 22:00:00 | 0.00°C | 0 |0.00 km/h | 0.00% | 0.00 hPa
  • 15-01-2019 21:00:00 | 4.20°C | Sudeste |6.00 km/h | 42.00% | 848.30 hPa
  • 15-01-2019 20:00:00 | 0.00°C | 0 |0.00 km/h | 0.00% | 0.00 hPa
  • 15-01-2019 19:00:00 | 4.10°C | Noroeste |3.00 km/h | 45.00% | 848.40 hPa
  • 15-01-2019 18:00:00 | 6.00°C | Noroeste |6.00 km/h | 42.00% | 848.30 hPa
  • 15-01-2019 17:00:00 | 0.00°C | 0 |0.00 km/h | 0.00% | 0.00 hPa
    • diseño web asturias Información sobre el estado de las mareas, altura de la marejada, temperatura del agua y otros datos de Gijón en Asturias.

      Surf Gijón